Language: 


Des rapports , des résumés tant et plus, au choix de chacun....


Données Historiques de Météogheer
Journalier Rapport pour Janvier 5, 2017 Unitée:  Les deux    Impériale   Métrique
Suivant Jour »
Journalier Hebdomadaire Mensuel Annuel Sur mesure
  Max: Min: Moyenne:
Température: 45.9 °F /  7.7 °C 28.6 °F /  -1.9 °C 37.6 °F /  3.1 °C
Point de rosée: 39.7 °F /  4.3 °C 26.4 °F /  -3.1 °C 34.9 °F /  1.6 °C
Humidité: 98% 75% 91%
Vent: 18.3mph /  29.4km/h - 2.8mph /  4.5km/h
Rafales: 18.3mph /  29.4km/h - -
Vent- - SSW
Pression: 30.6 in /  1037.1 hPa 30.2 in /  1023.9 hPa -
Pluie: 0 in /  0.0 mm    
Historical Graphs
 
 
Données tabulaires pour Janvier 5, 2017
Heure Température Point de rosée Pression Vent Vent Rafales Humidité Pluie Taux (Horaire) Conditions
00:09 36.9 °F /  2.7 °C 36 °F /  2.2 °C 30.3in /  1024.9hPa NNE 0.9mph /  1.4km/h 5.4mph /  8.7km/h 96% 0in /  0.0mm
00:19 37.6 °F /  3.1 °C 36.7 °F /  2.6 °C 30.3in /  1024.9hPa WNW 1.1mph /  1.8km/h 5.6mph /  9.0km/h 97% 0in /  0.0mm
00:29 37.6 °F /  3.1 °C 36.9 °F /  2.7 °C 30.3in /  1024.9hPa WNW 1.6mph /  2.6km/h 6.5mph /  10.5km/h 97% 0in /  0.0mm
00:39 37.6 °F /  3.1 °C 36.9 °F /  2.7 °C 30.3in /  1024.9hPa WNW 3.6mph /  5.8km/h 6mph /  9.7km/h 97% 0in /  0.0mm
00:49 37.8 °F /  3.2 °C 37 °F /  2.8 °C 30.3in /  1024.9hPa NNW 2.9mph /  4.7km/h 6.5mph /  10.5km/h 97% 0in /  0.0mm
00:59 37.9 °F /  3.3 °C 37.6 °F /  3.1 °C 30.2in /  1023.9hPa NNW 1.3mph /  2.1km/h 6mph /  9.7km/h 98% 0in /  0.0mm
01:09 37.9 °F /  3.3 °C 37.2 °F /  2.9 °C 30.3in /  1024.9hPa NNW 7.4mph /  11.9km/h 8.5mph /  13.7km/h 97% 0in /  0.0mm
01:19 38.1 °F /  3.4 °C 37.4 °F /  3.0 °C 30.3in /  1024.9hPa North 2.9mph /  4.7km/h 7.6mph /  12.2km/h 97% 0in /  0.0mm
01:29 38.1 °F /  3.4 °C 37.4 °F /  3.0 °C 30.3in /  1024.9hPa NNE 2mph /  3.2km/h 9.6mph /  15.4km/h 97% 0in /  0.0mm
01:39 37.9 °F /  3.3 °C 37.2 °F /  2.9 °C 30.3in /  1024.9hPa WNW 2mph /  3.2km/h 12.5mph /  20.1km/h 97% 0in /  0.0mm
01:49 38.1 °F /  3.4 °C 37.4 °F /  3.0 °C 30.3in /  1024.9hPa WNW 4.3mph /  6.9km/h 7.8mph /  12.6km/h 97% 0in /  0.0mm
01:59 38.5 °F /  3.6 °C 37.6 °F /  3.1 °C 30.3in /  1026.0hPa North 4mph /  6.4km/h 7.6mph /  12.2km/h 97% 0in /  0.0mm
02:09 38.5 °F /  3.6 °C 37.6 °F /  3.1 °C 30.3in /  1026.0hPa NNW 2.9mph /  4.7km/h 4mph /  6.4km/h 97% 0in /  0.0mm
02:19 37.9 °F /  3.3 °C 37.2 °F /  2.9 °C 30.3in /  1026.0hPa NNW 2mph /  3.2km/h 3.6mph /  5.8km/h 97% 0in /  0.0mm
02:29 37.9 °F /  3.3 °C 37.2 °F /  2.9 °C 30.3in /  1026.0hPa NNW 3.8mph /  6.1km/h 3.8mph /  6.1km/h 97% 0in /  0.0mm
02:39 37.9 °F /  3.3 °C 37.2 °F /  2.9 °C 30.3in /  1026.0hPa NNW 3.8mph /  6.1km/h 3.8mph /  6.1km/h 97% 0in /  0.0mm
02:49 37.9 °F /  3.3 °C 37.2 °F /  2.9 °C 30.3in /  1026.0hPa NNW 5.8mph /  9.3km/h 6.9mph /  11.1km/h 97% 0in /  0.0mm
02:59 38.5 °F /  3.6 °C 37.8 °F /  3.2 °C 30.3in /  1026.0hPa NNE 4mph /  6.4km/h 10.3mph /  16.6km/h 97% 0in /  0.0mm
03:09 38.5 °F /  3.6 °C 37.8 °F /  3.2 °C 30.3in /  1026.0hPa NNE 2.9mph /  4.7km/h 5.4mph /  8.7km/h 97% 0in /  0.0mm
03:19 38.8 °F /  3.8 °C 38.1 °F /  3.4 °C 30.3in /  1026.0hPa North 6.3mph /  10.1km/h 6.3mph /  10.1km/h 97% 0in /  0.0mm
03:29 39 °F /  3.9 °C 37.9 °F /  3.3 °C 30.3in /  1026.0hPa NNW 5.4mph /  8.7km/h 8.7mph /  14.0km/h 96% 0in /  0.0mm
03:39 38.7 °F /  3.7 °C 37.8 °F /  3.2 °C 30.3in /  1026.0hPa Calm   5.4mph /  8.7km/h 96% 0in /  0.0mm
03:49 38.5 °F /  3.6 °C 37.2 °F /  2.9 °C 30.3in /  1026.0hPa Calm   4.7mph /  7.6km/h 96% 0in /  0.0mm
03:59 37.9 °F /  3.3 °C 37 °F /  2.8 °C 30.3in /  1026.0hPa WNW 2mph /  3.2km/h 5.8mph /  9.3km/h 96% 0in /  0.0mm
04:09 37.8 °F /  3.2 °C 36.9 °F /  2.7 °C 30.3in /  1026.0hPa NNW 4.3mph /  6.9km/h 4.3mph /  6.9km/h 96% 0in /  0.0mm
04:19 37.9 °F /  3.3 °C 37.2 °F /  2.9 °C 30.3in /  1026.0hPa WNW 2.5mph /  4.0km/h 5.6mph /  9.0km/h 97% 0in /  0.0mm
04:29 37.9 °F /  3.3 °C 37.2 °F /  2.9 °C 30.3in /  1027.0hPa NNE 2.2mph /  3.5km/h 6mph /  9.7km/h 97% 0in /  0.0mm
04:39 37.8 °F /  3.2 °C 36.9 °F /  2.7 °C 30.3in /  1027.0hPa North 1.3mph /  2.1km/h 3.8mph /  6.1km/h 96% 0in /  0.0mm
04:49 37.8 °F /  3.2 °C 36.9 °F /  2.7 °C 30.3in /  1027.0hPa NNE 3.4mph /  5.5km/h 5.4mph /  8.7km/h 96% 0in /  0.0mm
04:59 37.6 °F /  3.1 °C 36.7 °F /  2.6 °C 30.3in /  1027.0hPa WNW 2.5mph /  4.0km/h 6.3mph /  10.1km/h 96% 0in /  0.0mm
05:09 37.6 °F /  3.1 °C 36.7 °F /  2.6 °C 30.3in /  1027.0hPa WNW 4mph /  6.4km/h 6.5mph /  10.5km/h 96% 0in /  0.0mm
05:19 37.8 °F /  3.2 °C 37 °F /  2.8 °C 30.3in /  1027.0hPa WNW 1.1mph /  1.8km/h 5.8mph /  9.3km/h 97% 0in /  0.0mm
05:29 37.8 °F /  3.2 °C 37 °F /  2.8 °C 30.3in /  1027.0hPa WNW 2.9mph /  4.7km/h 6.5mph /  10.5km/h 97% 0in /  0.0mm
05:39 37.8 °F /  3.2 °C 37 °F /  2.8 °C 30.3in /  1027.0hPa NNE 2.5mph /  4.0km/h 6mph /  9.7km/h 97% 0in /  0.0mm
05:49 37.6 °F /  3.1 °C 36.9 °F /  2.7 °C 30.3in /  1027.0hPa WNW 1.1mph /  1.8km/h 5.4mph /  8.7km/h 97% 0in /  0.0mm
05:59 37.2 °F /  2.9 °C 36.3 °F /  2.4 °C 30.3in /  1027.0hPa NNW 3.1mph /  5.0km/h 7.2mph /  11.6km/h 96% 0in /  0.0mm
06:09 37.6 °F /  3.1 °C 36.7 °F /  2.6 °C 30.3in /  1027.0hPa NNW 3.1mph /  5.0km/h 6.5mph /  10.5km/h 97% 0in /  0.0mm
06:19 37.2 °F /  2.9 °C 36.5 °F /  2.5 °C 30.3in /  1027.0hPa North 3.1mph /  5.0km/h 6.3mph /  10.1km/h 97% 0in /  0.0mm
06:29 37.2 °F /  2.9 °C 36.5 °F /  2.5 °C 30.3in /  1027.0hPa North 5.6mph /  9.0km/h 5.6mph /  9.0km/h 97% 0in /  0.0mm
06:39 37.6 °F /  3.1 °C 36.7 °F /  2.6 °C 30.3in /  1027.0hPa West 2.5mph /  4.0km/h 6.5mph /  10.5km/h 97% 0in /  0.0mm
06:49 37.6 °F /  3.1 °C 36.7 °F /  2.6 °C 30.3in /  1027.0hPa WSW 3.1mph /  5.0km/h 6mph /  9.7km/h 97% 0in /  0.0mm
06:59 37.6 °F /  3.1 °C 36.3 °F /  2.4 °C 30.3in /  1027.0hPa NW 3.8mph /  6.1km/h 6.3mph /  10.1km/h 96% 0in /  0.0mm
07:09 37.6 °F /  3.1 °C 36.3 °F /  2.4 °C 30.4in /  1028.0hPa West 5.4mph /  8.7km/h 8.1mph /  13.0km/h 96% 0in /  0.0mm
07:19 37.6 °F /  3.1 °C 36.7 °F /  2.6 °C 30.4in /  1028.0hPa NNW 2.9mph /  4.7km/h 8.1mph /  13.0km/h 96% 0in /  0.0mm
07:29 37.8 °F /  3.2 °C 36.9 °F /  2.7 °C 30.4in /  1028.0hPa NNW 4.3mph /  6.9km/h 7.8mph /  12.6km/h 96% 0in /  0.0mm
07:39 37.6 °F /  3.1 °C 36.7 °F /  2.6 °C 30.4in /  1028.0hPa West 1.1mph /  1.8km/h 4.7mph /  7.6km/h 96% 0in /  0.0mm
07:49 37.2 °F /  2.9 °C 36.3 °F /  2.4 °C 30.4in /  1028.0hPa North 2.5mph /  4.0km/h 5.6mph /  9.0km/h 96% 0in /  0.0mm
07:59 37 °F /  2.8 °C 36.1 °F /  2.3 °C 30.4in /  1028.0hPa WNW 4mph /  6.4km/h 5.4mph /  8.7km/h 96% 0in /  0.0mm
08:09 37 °F /  2.8 °C 36.1 °F /  2.3 °C 30.4in /  1028.0hPa WNW 2.9mph /  4.7km/h 5.4mph /  8.7km/h 96% 0in /  0.0mm
08:19 36.9 °F /  2.7 °C 36 °F /  2.2 °C 30.4in /  1028.0hPa NNW 2.7mph /  4.3km/h 5.6mph /  9.0km/h 96% 0in /  0.0mm
08:29 36.9 °F /  2.7 °C 35.8 °F /  2.1 °C 30.4in /  1030.0hPa WNW 2.5mph /  4.0km/h 4.3mph /  6.9km/h 96% 0in /  0.0mm
08:39 36.9 °F /  2.7 °C 35.8 °F /  2.1 °C 30.4in /  1029.0hPa North 2.2mph /  3.5km/h 5.4mph /  8.7km/h 96% 0in /  0.0mm
08:49 36.7 °F /  2.6 °C 35.6 °F /  2.0 °C 30.4in /  1029.0hPa Calm   3.4mph /  5.5km/h 96% 0in /  0.0mm
08:59 36.9 °F /  2.7 °C 36 °F /  2.2 °C 30.4in /  1029.0hPa WNW 2.9mph /  4.7km/h 6mph /  9.7km/h 97% 0in /  0.0mm
09:09 37 °F /  2.8 °C 36.3 °F /  2.4 °C 30.4in /  1028.0hPa WNW 7.4mph /  11.9km/h 7.4mph /  11.9km/h 97% 0in /  0.0mm
09:19 37.2 °F /  2.9 °C 36.3 °F /  2.4 °C 30.4in /  1028.0hPa NNE 2.7mph /  4.3km/h 8.7mph /  14.0km/h 96% 0in /  0.0mm
09:29 36.3 °F /  2.4 °C 35.1 °F /  1.7 °C 30.4in /  1030.0hPa Calm   6mph /  9.7km/h 95% 0in /  0.0mm
09:39 36.1 °F /  2.3 °C 34.9 °F /  1.6 °C 30.4in /  1030.0hPa NNE 2.7mph /  4.3km/h 4mph /  6.4km/h 95% 0in /  0.0mm
09:49 36 °F /  2.2 °C 34.5 °F /  1.4 °C 30.4in /  1030.0hPa NNW 2.7mph /  4.3km/h 3.1mph /  5.0km/h 95% 0in /  0.0mm
09:59 36.7 °F /  2.6 °C 35.6 °F /  2.0 °C 30.4in /  1030.0hPa NW 2.2mph /  3.5km/h 4mph /  6.4km/h 96% 0in /  0.0mm
10:09 37.2 °F /  2.9 °C 36.5 °F /  2.5 °C 30.4in /  1030.0hPa NNW 4.3mph /  6.9km/h 6mph /  9.7km/h 97% 0in /  0.0mm
10:19 38.1 °F /  3.4 °C 37.4 °F /  3.0 °C 30.4in /  1030.0hPa Calm   4.3mph /  6.9km/h 97% 0in /  0.0mm
10:29 38.7 °F /  3.7 °C 37.9 °F /  3.3 °C 30.4in /  1030.0hPa North 3.4mph /  5.5km/h 5.4mph /  8.7km/h 97% 0in /  0.0mm
10:39 40.1 °F /  4.5 °C 39 °F /  3.9 °C 30.4in /  1031.0hPa NNW 1.3mph /  2.1km/h 13.2mph /  21.2km/h 96% 0in /  0.0mm
10:49 40.6 °F /  4.8 °C 39 °F /  3.9 °C 30.4in /  1031.0hPa NNW 4.3mph /  6.9km/h 12.1mph /  19.5km/h 94% 0in /  0.0mm
11:09 41.9 °F /  5.5 °C 39.7 °F /  4.3 °C 30.4in /  1031.0hPa North 6mph /  9.7km/h 7.6mph /  12.2km/h 92% 0in /  0.0mm
11:19 42.4 °F /  5.8 °C 39.7 °F /  4.3 °C 30.4in /  1031.0hPa NNE 7.8mph /  12.6km/h 7.8mph /  12.6km/h 90% 0in /  0.0mm
11:29 43 °F /  6.1 °C 39.6 °F /  4.2 °C 30.4in /  1031.0hPa North 3.6mph /  5.8km/h 8.7mph /  14.0km/h 88% 0in /  0.0mm
11:39 43.3 °F /  6.3 °C 39.7 °F /  4.3 °C 30.4in /  1031.0hPa NNE 2.7mph /  4.3km/h 7.4mph /  11.9km/h 87% 0in /  0.0mm
11:49 43.5 °F /  6.4 °C 39.6 °F /  4.2 °C 30.4in /  1031.0hPa NNE 6.3mph /  10.1km/h 8.5mph /  13.7km/h 86% 0in /  0.0mm
11:59 43.5 °F /  6.4 °C 39.4 °F /  4.1 °C 30.4in /  1031.0hPa NNW 4.3mph /  6.9km/h 6.5mph /  10.5km/h 85% 0in /  0.0mm
12:09 43.9 °F /  6.6 °C 39.4 °F /  4.1 °C 30.4in /  1031.0hPa NNE 8.1mph /  13.0km/h 8.5mph /  13.7km/h 84% 0in /  0.0mm
12:19 44.1 °F /  6.7 °C 39.6 °F /  4.2 °C 30.4in /  1031.0hPa ENE 5.6mph /  9.0km/h 8.1mph /  13.0km/h 84% 0in /  0.0mm
12:29 44.4 °F /  6.9 °C 39.4 °F /  4.1 °C 30.4in /  1031.0hPa NNE 5.4mph /  8.7km/h 17.9mph /  28.8km/h 82% 0in /  0.0mm
12:39 44.4 °F /  6.9 °C 39 °F /  3.9 °C 30.4in /  1031.0hPa North 3.6mph /  5.8km/h 7.8mph /  12.6km/h 81% 0in /  0.0mm
12:49 44.8 °F /  7.1 °C 38.8 °F /  3.8 °C 30.4in /  1031.0hPa North 6.9mph /  11.1km/h 7.6mph /  12.2km/h 80% 0in /  0.0mm
12:59 45 °F /  7.2 °C 39 °F /  3.9 °C 30.4in /  1031.0hPa NE 6.5mph /  10.5km/h 7.2mph /  11.6km/h 80% 0in /  0.0mm
13:09 45 °F /  7.2 °C 38.5 °F /  3.6 °C 30.5in /  1032.1hPa NE 4.3mph /  6.9km/h 8.5mph /  13.7km/h 78% 0in /  0.0mm
13:19 45.1 °F /  7.3 °C 39 °F /  3.9 °C 30.5in /  1032.1hPa NE 3.8mph /  6.1km/h 5.6mph /  9.0km/h 79% 0in /  0.0mm
13:29 45.3 °F /  7.4 °C 38.8 °F /  3.8 °C 30.4in /  1031.0hPa North 5.4mph /  8.7km/h 7.2mph /  11.6km/h 78% 0in /  0.0mm
13:39 45.9 °F /  7.7 °C 39.4 °F /  4.1 °C 30.4in /  1031.0hPa NNW 1.1mph /  1.8km/h 17.9mph /  28.8km/h 78% 0in /  0.0mm
13:49 45.9 °F /  7.7 °C 39 °F /  3.9 °C 30.4in /  1031.0hPa NW 4.3mph /  6.9km/h 5.4mph /  8.7km/h 77% 0in /  0.0mm
14:09 45.1 °F /  7.3 °C 37.8 °F /  3.2 °C 30.4in /  1031.0hPa NNW 3.1mph /  5.0km/h 5.4mph /  8.7km/h 75% 0in /  0.0mm
14:19 44.4 °F /  6.9 °C 37 °F /  2.8 °C 30.4in /  1031.0hPa NNE 1.6mph /  2.6km/h 4.7mph /  7.6km/h 75% 0in /  0.0mm
14:29 44.1 °F /  6.7 °C 36.9 °F /  2.7 °C 30.4in /  1031.0hPa NNE 0.9mph /  1.4km/h 2.9mph /  4.7km/h 76% 0in /  0.0mm
14:39 43.5 °F /  6.4 °C 37.2 °F /  2.9 °C 30.4in /  1031.0hPa NE 1.6mph /  2.6km/h 2.9mph /  4.7km/h 78% 0in /  0.0mm
14:49 43.3 °F /  6.3 °C 36.9 °F /  2.7 °C 30.4in /  1031.0hPa NNE 3.8mph /  6.1km/h 4.3mph /  6.9km/h 78% 0in /  0.0mm
14:59 43 °F /  6.1 °C 36.9 °F /  2.7 °C 30.4in /  1031.0hPa ENE 2.7mph /  4.3km/h 5.4mph /  8.7km/h 79% 0in /  0.0mm
15:09 42.4 °F /  5.8 °C 36 °F /  2.2 °C 30.4in /  1031.0hPa NE 4mph /  6.4km/h 4.7mph /  7.6km/h 78% 0in /  0.0mm
15:19 41.9 °F /  5.5 °C 35.8 °F /  2.1 °C 30.4in /  1031.0hPa NE 3.4mph /  5.5km/h 4mph /  6.4km/h 79% 0in /  0.0mm
15:29 41.9 °F /  5.5 °C 36.5 °F /  2.5 °C 30.5in /  1032.1hPa East 4mph /  6.4km/h 4mph /  6.4km/h 81% 0in /  0.0mm
15:39 42.1 °F /  5.6 °C 36.7 °F /  2.6 °C 30.5in /  1032.1hPa Calm   4.3mph /  6.9km/h 81% 0in /  0.0mm
15:49 41.9 °F /  5.5 °C 36.9 °F /  2.7 °C 30.5in /  1032.1hPa NE 3.1mph /  5.0km/h 3.4mph /  5.5km/h 82% 0in /  0.0mm
15:59 41.9 °F /  5.5 °C 36.9 °F /  2.7 °C 30.5in /  1033.1hPa NE 4.3mph /  6.9km/h 4.3mph /  6.9km/h 82% 0in /  0.0mm
16:09 41.9 °F /  5.5 °C 36.9 °F /  2.7 °C 30.5in /  1032.1hPa NE 2.5mph /  4.0km/h 4.3mph /  6.9km/h 82% 0in /  0.0mm
16:19 41.9 °F /  5.5 °C 36.9 °F /  2.7 °C 30.5in /  1032.1hPa NE 3.8mph /  6.1km/h 4.5mph /  7.2km/h 82% 0in /  0.0mm
16:29 41.9 °F /  5.5 °C 36.9 °F /  2.7 °C 30.5in /  1033.1hPa ENE 2.5mph /  4.0km/h 4.7mph /  7.6km/h 82% 0in /  0.0mm
16:39 41.9 °F /  5.5 °C 36.9 °F /  2.7 °C 30.5in /  1033.1hPa ENE 2.7mph /  4.3km/h 3.1mph /  5.0km/h 82% 0in /  0.0mm
16:49 41.9 °F /  5.5 °C 36.9 °F /  2.7 °C 30.5in /  1033.1hPa ENE 3.6mph /  5.8km/h 6.9mph /  11.1km/h 82% 0in /  0.0mm
16:59 41.9 °F /  5.5 °C 36.9 °F /  2.7 °C 30.5in /  1032.1hPa ENE 3.8mph /  6.1km/h 4.3mph /  6.9km/h 82% 0in /  0.0mm
17:09 41.9 °F /  5.5 °C 36.9 °F /  2.7 °C 30.5in /  1032.1hPa ENE 3.6mph /  5.8km/h 4.3mph /  6.9km/h 82% 0in /  0.0mm
17:19 41.9 °F /  5.5 °C 36.9 °F /  2.7 °C 30.5in /  1032.1hPa East 3.4mph /  5.5km/h 3.8mph /  6.1km/h 82% 0in /  0.0mm
17:29 37 °F /  2.8 °C 33.1 °F /  0.6 °C 30.5in /  1033.1hPa ENE 2.9mph /  4.7km/h 4mph /  6.4km/h 85% 0in /  0.0mm
17:39 36.7 °F /  2.6 °C 32.5 °F /  0.3 °C 30.5in /  1033.1hPa ENE 3.1mph /  5.0km/h 4.3mph /  6.9km/h 85% 0in /  0.0mm
17:49 36.1 °F /  2.3 °C 32 °F /  0.0 °C 30.5in /  1033.1hPa Calm   3.8mph /  6.1km/h 85% 0in /  0.0mm
17:59 36 °F /  2.2 °C 32.2 °F /  0.1 °C 30.5in /  1033.1hPa NE 2.7mph /  4.3km/h 4.3mph /  6.9km/h 86% 0in /  0.0mm
18:09 35.8 °F /  2.1 °C 32.2 °F /  0.1 °C 30.5in /  1034.1hPa ENE 3.6mph /  5.8km/h 4.3mph /  6.9km/h 87% 0in /  0.0mm
18:19 35.4 °F /  1.9 °C 31.8 °F /  -0.1 °C 30.5in /  1034.1hPa ENE 0.9mph /  1.4km/h 3.6mph /  5.8km/h 87% 0in /  0.0mm
18:29 35.2 °F /  1.8 °C 31.6 °F /  -0.2 °C 30.5in /  1034.1hPa ENE 18.3mph /  29.4km/h 18.3mph /  29.4km/h 87% 0in /  0.0mm
18:39 35.1 °F /  1.7 °C 31.5 °F /  -0.3 °C 30.5in /  1034.1hPa East 2.5mph /  4.0km/h 3.8mph /  6.1km/h 87% 0in /  0.0mm
18:49 34.5 °F /  1.4 °C 30.9 °F /  -0.6 °C 30.5in /  1034.1hPa Calm   2.7mph /  4.3km/h 87% 0in /  0.0mm
18:59 34.3 °F /  1.3 °C 30.7 °F /  -0.7 °C 30.5in /  1034.1hPa Calm   17.9mph /  28.8km/h 87% 0in /  0.0mm
19:09 33.8 °F /  1.0 °C 30.4 °F /  -0.9 °C 30.6in /  1035.1hPa Calm     87% 0in /  0.0mm
19:19 33.6 °F /  0.9 °C 30.4 °F /  -0.9 °C 30.6in /  1035.1hPa Calm   1.6mph /  2.6km/h 88% 0in /  0.0mm
19:29 33.3 °F /  0.7 °C 30 °F /  -1.1 °C 30.6in /  1035.1hPa Calm     88% 0in /  0.0mm
19:39 33.3 °F /  0.7 °C 30 °F /  -1.1 °C 30.5in /  1034.1hPa NNE 2.9mph /  4.7km/h 2.9mph /  4.7km/h 88% 0in /  0.0mm
19:49 32.5 °F /  0.3 °C 29.5 °F /  -1.4 °C 30.5in /  1034.1hPa Calm   2.9mph /  4.7km/h 88% 0in /  0.0mm
19:59 32.2 °F /  0.1 °C 29.3 °F /  -1.5 °C 30.6in /  1035.1hPa NNE 2.2mph /  3.5km/h 2.9mph /  4.7km/h 89% 0in /  0.0mm
20:09 32.2 °F /  0.1 °C 29.3 °F /  -1.5 °C 30.5in /  1034.1hPa North 2.9mph /  4.7km/h 2.9mph /  4.7km/h 89% 0in /  0.0mm
20:19 32.2 °F /  0.1 °C 29.3 °F /  -1.5 °C 30.5in /  1034.1hPa Calm   3.1mph /  5.0km/h 89% 0in /  0.0mm
20:29 32.2 °F /  0.1 °C 29.3 °F /  -1.5 °C 30.6in /  1035.1hPa Calm   1.6mph /  2.6km/h 89% 0in /  0.0mm
20:39 31.1 °F /  -0.5 °C 28.6 °F /  -1.9 °C 30.6in /  1036.1hPa Calm   2.2mph /  3.5km/h 90% 0in /  0.0mm
20:49 30.7 °F /  -0.7 °C 28.2 °F /  -2.1 °C 30.6in /  1036.1hPa Calm   2.5mph /  4.0km/h 90% 0in /  0.0mm
20:59 30.7 °F /  -0.7 °C 28.2 °F /  -2.1 °C 30.6in /  1036.1hPa Calm   3.1mph /  5.0km/h 90% 0in /  0.0mm
21:09 30.7 °F /  -0.7 °C 28.4 °F /  -2.0 °C 30.6in /  1036.1hPa NE 2.7mph /  4.3km/h 3.4mph /  5.5km/h 91% 0in /  0.0mm
21:19 30.6 °F /  -0.8 °C 28.6 °F /  -1.9 °C 30.6in /  1036.1hPa NE 2.2mph /  3.5km/h 3.1mph /  5.0km/h 92% 0in /  0.0mm
21:29 30.2 °F /  -1.0 °C 28.2 °F /  -2.1 °C 30.6in /  1036.1hPa Calm   2.5mph /  4.0km/h 92% 0in /  0.0mm
21:39 30.2 °F /  -1.0 °C 28.2 °F /  -2.1 °C 30.6in /  1037.1hPa NE 2mph /  3.2km/h 2.5mph /  4.0km/h 92% 0in /  0.0mm
21:49 30 °F /  -1.1 °C 28 °F /  -2.2 °C 30.6in /  1037.1hPa Calm   2mph /  3.2km/h 92% 0in /  0.0mm
21:59 30 °F /  -1.1 °C 28.2 °F /  -2.1 °C 30.6in /  1037.1hPa NE 1.3mph /  2.1km/h 2.7mph /  4.3km/h 93% 0in /  0.0mm
22:09 29.8 °F /  -1.2 °C 27.9 °F /  -2.3 °C 30.6in /  1037.1hPa NE 2.9mph /  4.7km/h 2.9mph /  4.7km/h 92% 0in /  0.0mm
22:19 29.5 °F /  -1.4 °C 27.5 °F /  -2.5 °C 30.6in /  1037.1hPa Calm   2.9mph /  4.7km/h 92% 0in /  0.0mm
22:29 29.5 °F /  -1.4 °C 27.1 °F /  -2.7 °C 30.6in /  1037.1hPa Calm   2.7mph /  4.3km/h 91% 0in /  0.0mm
22:39 28.9 °F /  -1.7 °C 26.8 °F /  -2.9 °C 30.6in /  1037.1hPa Calm     91% 0in /  0.0mm
22:49 28.6 °F /  -1.9 °C 26.4 °F /  -3.1 °C 30.6in /  1037.1hPa Calm     91% 0in /  0.0mm
22:59 28.6 °F /  -1.9 °C 26.4 °F /  -3.1 °C 30.6in /  1037.1hPa Calm   1.6mph /  2.6km/h 92% 0in /  0.0mm
23:09 28.6 °F /  -1.9 °C 26.6 °F /  -3.0 °C 30.6in /  1037.1hPa Calm     92% 0in /  0.0mm
23:19 28.6 °F /  -1.9 °C 26.6 °F /  -3.0 °C 30.6in /  1037.1hPa NE 2.5mph /  4.0km/h 2.5mph /  4.0km/h 92% 0in /  0.0mm
23:29 28.6 °F /  -1.9 °C 26.6 °F /  -3.0 °C 30.6in /  1037.1hPa NE 2.5mph /  4.0km/h 3.1mph /  5.0km/h 92% 0in /  0.0mm
23:39 28.6 °F /  -1.9 °C 27 °F /  -2.8 °C 30.6in /  1037.1hPa ENE 2.5mph /  4.0km/h 2.9mph /  4.7km/h 93% 0in /  0.0mm
23:49 28.6 °F /  -1.9 °C 27 °F /  -2.8 °C 30.6in /  1037.1hPa ENE 2.5mph /  4.0km/h 2.5mph /  4.0km/h 93% 0in /  0.0mm
23:59 28.6 °F /  -1.9 °C 27 °F /  -2.8 °C 30.6in /  1037.1hPa Calm   3.1mph /  5.0km/h 93% 0in /  0.0mm
Données Historique de Météo Turbie

Mise a jour : 24/05/2018 10:18:14
Généré par Cumulus 1.9.4 (1099)